Chie Maru No.10 — JD2376 — position and weather

sailwx.info

Track history (hours):
 
Tides and Currents Weather Stations Pressure Air Temp Water Temp Dewpoint Dewpoint Depression Visibility Wind Speed Wind Dir Waves Ship Positions

Chie Maru No.10

Last reported at 2018-Jan-19 15:00 UTC. Time now 2018-Jan-19 15:13 UTC.
Position N 35°22' E 139°40'.

Length 72 m; draft 3.8 m.

Type: Ship. MMSI: 431000147.

Date/timePositionNaut miles runAvg speedWind from/ knotsBaromVisibWave heightAir tempDewpointWater temp
2018-Jan-19 15:00N 35°22' E 139°40'611.0
2018-Jan-19 14:30N 35°18' E 139°44'611.2
2018-Jan-19 14:00N 35°13' E 139°47'612.3
2018-Jan-19 13:30N 35°07' E 139°45'612.2
2018-Jan-19 13:00N 35°02' E 139°40'612.5
2018-Jan-19 12:30N 34°58' E 139°34'1112.6
2018-Jan-19 11:38N 34°52' E 139°23'212.5
2018-Jan-19 11:30N 34°51' E 139°22'712.7
2018-Jan-19 10:59N 34°47' E 139°15'812.9
2018-Jan-19 10:20N 34°42' E 139°07'412.6
2018-Jan-19 10:00N 34°39' E 139°03'611.4
2018-Jan-19 09:30N 34°36' E 138°58'611.9
2018-Jan-19 09:00N 34°35' E 138°51'611.7
2018-Jan-19 08:30N 34°37' E 138°44'611.7
2018-Jan-19 08:00N 34°39' E 138°37'611.6
2018-Jan-19 07:29N 34°42' E 138°31'612.5
2018-Jan-19 07:00N 34°44' E 138°24'611.6
2018-Jan-19 06:31N 34°47' E 138°18'0 0.1
2018-Jan-19 01:15N 34°47' E 138°18'0 0.6
2018-Jan-19 01:00N 34°47' E 138°18'2 3.4
2018-Jan-19 00:30N 34°47' E 138°20'612.0
2018-Jan-19 00:00N 34°44' E 138°26'612.3
2018-Jan-18 23:30N 34°41' E 138°33'712.2
2018-Jan-18 22:57N 34°39' E 138°40'712.5
2018-Jan-18 22:22N 34°36' E 138°48'512.4
2018-Jan-18 21:57N 34°36' E 138°55'712.4
2018-Jan-18 21:23N 34°40' E 139°02'811.8
2018-Jan-18 20:45N 34°45' E 139°08'311.6
2018-Jan-18 20:30N 34°47' E 139°11'1111.2
2018-Jan-18 19:30N 34°55' E 139°20'611.4
2018-Jan-18 18:58N 34°59' E 139°26'511.0
2018-Jan-18 18:30N 35°01' E 139°31'611.6
2018-Jan-18 18:00N 35°04' E 139°37'611.9
2018-Jan-18 17:30N 35°08' E 139°43'611.8
2018-Jan-18 17:00N 35°13' E 139°46'611.1
2018-Jan-18 16:30N 35°19' E 139°44'611.1
2018-Jan-18 16:00N 35°24' E 139°43'611.9
2018-Jan-18 15:30N 35°28' E 139°48'712.0
2018-Jan-18 14:55N 35°31' E 139°56'510.8
2018-Jan-18 14:30N 35°30' E 140°01'1 0.8
2018-Jan-18 13:48N 35°30' E 140°02'0 0.0
2018-Jan-18 13:28N 35°30' E 140°02'0 0.0
2018-Jan-18 12:58N 35°30' E 140°02'0 0.0
2018-Jan-18 12:29N 35°30' E 140°02'0 0.0
2018-Jan-18 11:59N 35°30' E 140°02'0 0.0
2018-Jan-18 11:30N 35°30' E 140°02'0 0.0
2018-Jan-18 10:56N 35°30' E 140°02'0 0.0
2018-Jan-18 10:30N 35°30' E 140°02'0 0.0
2018-Jan-18 09:59N 35°30' E 140°02'0 0.1
2018-Jan-18 09:30N 35°30' E 140°02'2 4.0
2018-Jan-18 09:01N 35°31' E 140°00'1 2.0
2018-Jan-18 08:30N 35°31' E 139°59'611.9
2018-Jan-18 08:00N 35°29' E 139°52'612.7
2018-Jan-18 07:31N 35°24' E 139°47'612.0
2018-Jan-18 07:00N 35°19' E 139°44'611.7
2018-Jan-18 06:30N 35°13' E 139°47'612.6
2018-Jan-18 06:00N 35°07' E 139°45'612.7
2018-Jan-18 05:30N 35°03' E 139°39'2513.2
2018-Jan-18 03:38N 34°48' E 139°15'313.3
2018-Jan-18 03:27N 34°46' E 139°13'613.4
2018-Jan-18 02:58N 34°42' E 139°07'813.4
2018-Jan-18 02:24N 34°37' E 138°60'812.0
2018-Jan-18 01:44N 34°35' E 138°50'411.0
2018-Jan-18 01:23N 34°35' E 138°46'511.1
2018-Jan-18 00:58N 34°35' E 138°40'1111.8
2018-Jan-18 00:00N 34°36' E 138°26'111.9
2018-Jan-17 23:57N 34°36' E 138°26'  
2018-Jan-12 14:46N 34°44' E 139°11'310.3
2018-Jan-12 14:29N 34°46' E 139°13'610.6
2018-Jan-12 13:58N 34°49' E 139°19'40 0.8
2018-Jan-10 13:25N 34°58' E 140°07'511.6
2018-Jan-10 12:59N 34°55' E 140°02'1311.9
2018-Jan-10 11:53N 34°49' E 139°47'612.9
2018-Jan-10 11:24N 34°50' E 139°40'612.5
2018-Jan-10 10:57N 34°50' E 139°33'611.7
2018-Jan-10 10:27N 34°49' E 139°26'712.4
2018-Jan-10 09:53N 34°48' E 139°18'513.4
2018-Jan-10 09:30N 34°45' E 139°13'712.8
2018-Jan-10 08:56N 34°40' E 139°05'612.5
2018-Jan-10 08:29N 34°37' E 138°60'713.0
2018-Jan-10 07:58N 34°35' E 138°52'612.7
2018-Jan-10 07:29N 34°35' E 138°44'612.2
2018-Jan-10 07:00N 34°34' E 138°37'711.6
2018-Jan-10 06:23N 34°34' E 138°29'511.5
2018-Jan-10 05:57N 34°34' E 138°23'612.6
2018-Jan-10 05:30N 34°33' E 138°16'713.0
2018-Jan-10 05:00N 34°33' E 138°08'712.9
2018-Jan-10 04:27N 34°33' E 137°59'3011.8
2018-Jan-10 01:54N 34°33' E 137°23'611.5
2018-Jan-10 01:24N 34°33' E 137°16'11 4.8
2018-Jan-09 23:04N 34°41' E 137°07'  
Track history (hours):
 
Tides and Currents Weather Stations Pressure Air Temp Water Temp Dewpoint Dewpoint Depression Visibility Wind Speed Wind Dir Waves Ship Positions

Chie Maru No.10

Last reported at 2018-Jan-19 15:00 UTC. Time now 2018-Jan-19 15:13 UTC.
Position N 35°22' E 139°40'.

Length 72 m; draft 3.8 m.

Type: Ship. MMSI: 431000147.

Date/timePositionNaut miles runAvg speedWind from/ knotsBaromVisibWave heightAir tempDewpointWater temp
2018-Jan-19 15:00N 35°22' E 139°40'611.0
2018-Jan-19 14:30N 35°18' E 139°44'611.2
2018-Jan-19 14:00N 35°13' E 139°47'612.3
2018-Jan-19 13:30N 35°07' E 139°45'612.2
2018-Jan-19 13:00N 35°02' E 139°40'612.5
2018-Jan-19 12:30N 34°58' E 139°34'1112.6
2018-Jan-19 11:38N 34°52' E 139°23'212.5
2018-Jan-19 11:30N 34°51' E 139°22'712.7
2018-Jan-19 10:59N 34°47' E 139°15'812.9
2018-Jan-19 10:20N 34°42' E 139°07'412.6
2018-Jan-19 10:00N 34°39' E 139°03'611.4
2018-Jan-19 09:30N 34°36' E 138°58'611.9
2018-Jan-19 09:00N 34°35' E 138°51'611.7
2018-Jan-19 08:30N 34°37' E 138°44'611.7
2018-Jan-19 08:00N 34°39' E 138°37'611.6
2018-Jan-19 07:29N 34°42' E 138°31'612.5
2018-Jan-19 07:00N 34°44' E 138°24'611.6
2018-Jan-19 06:31N 34°47' E 138°18'0 0.1
2018-Jan-19 01:15N 34°47' E 138°18'0 0.6
2018-Jan-19 01:00N 34°47' E 138°18'2 3.4
2018-Jan-19 00:30N 34°47' E 138°20'612.0
2018-Jan-19 00:00N 34°44' E 138°26'612.3
2018-Jan-18 23:30N 34°41' E 138°33'712.2
2018-Jan-18 22:57N 34°39' E 138°40'712.5
2018-Jan-18 22:22N 34°36' E 138°48'512.4
2018-Jan-18 21:57N 34°36' E 138°55'712.4
2018-Jan-18 21:23N 34°40' E 139°02'811.8
2018-Jan-18 20:45N 34°45' E 139°08'311.6
2018-Jan-18 20:30N 34°47' E 139°11'1111.2
2018-Jan-18 19:30N 34°55' E 139°20'611.4
2018-Jan-18 18:58N 34°59' E 139°26'511.0
2018-Jan-18 18:30N 35°01' E 139°31'611.6
2018-Jan-18 18:00N 35°04' E 139°37'611.9
2018-Jan-18 17:30N 35°08' E 139°43'611.8
2018-Jan-18 17:00N 35°13' E 139°46'611.1
2018-Jan-18 16:30N 35°19' E 139°44'611.1
2018-Jan-18 16:00N 35°24' E 139°43'611.9
2018-Jan-18 15:30N 35°28' E 139°48'712.0
2018-Jan-18 14:55N 35°31' E 139°56'510.8
2018-Jan-18 14:30N 35°30' E 140°01'1 0.8
2018-Jan-18 13:48N 35°30' E 140°02'0 0.0
2018-Jan-18 13:28N 35°30' E 140°02'0 0.0
2018-Jan-18 12:58N 35°30' E 140°02'0 0.0
2018-Jan-18 12:29N 35°30' E 140°02'0 0.0
2018-Jan-18 11:59N 35°30' E 140°02'0 0.0
2018-Jan-18 11:30N 35°30' E 140°02'0 0.0
2018-Jan-18 10:56N 35°30' E 140°02'0 0.0
2018-Jan-18 10:30N 35°30' E 140°02'0 0.0
2018-Jan-18 09:59N 35°30' E 140°02'0 0.1
2018-Jan-18 09:30N 35°30' E 140°02'2 4.0
2018-Jan-18 09:01N 35°31' E 140°00'1 2.0
2018-Jan-18 08:30N 35°31' E 139°59'611.9
2018-Jan-18 08:00N 35°29' E 139°52'612.7
2018-Jan-18 07:31N 35°24' E 139°47'612.0
2018-Jan-18 07:00N 35°19' E 139°44'611.7
2018-Jan-18 06:30N 35°13' E 139°47'612.6
2018-Jan-18 06:00N 35°07' E 139°45'612.7
2018-Jan-18 05:30N 35°03' E 139°39'2513.2
2018-Jan-18 03:38N 34°48' E 139°15'313.3
2018-Jan-18 03:27N 34°46' E 139°13'613.4
2018-Jan-18 02:58N 34°42' E 139°07'813.4
2018-Jan-18 02:24N 34°37' E 138°60'812.0
2018-Jan-18 01:44N 34°35' E 138°50'411.0
2018-Jan-18 01:23N 34°35' E 138°46'511.1
2018-Jan-18 00:58N 34°35' E 138°40'1111.8
2018-Jan-18 00:00N 34°36' E 138°26'111.9
2018-Jan-17 23:57N 34°36' E 138°26'  
2018-Jan-12 14:46N 34°44' E 139°11'310.3
2018-Jan-12 14:29N 34°46' E 139°13'610.6
2018-Jan-12 13:58N 34°49' E 139°19'40 0.8
2018-Jan-10 13:25N 34°58' E 140°07'511.6
2018-Jan-10 12:59N 34°55' E 140°02'1311.9
2018-Jan-10 11:53N 34°49' E 139°47'612.9
2018-Jan-10 11:24N 34°50' E 139°40'612.5
2018-Jan-10 10:57N 34°50' E 139°33'611.7
2018-Jan-10 10:27N 34°49' E 139°26'712.4
2018-Jan-10 09:53N 34°48' E 139°18'513.4
2018-Jan-10 09:30N 34°45' E 139°13'712.8
2018-Jan-10 08:56N 34°40' E 139°05'612.5
2018-Jan-10 08:29N 34°37' E 138°60'713.0
2018-Jan-10 07:58N 34°35' E 138°52'612.7
2018-Jan-10 07:29N 34°35' E 138°44'612.2
2018-Jan-10 07:00N 34°34' E 138°37'711.6
2018-Jan-10 06:23N 34°34' E 138°29'511.5
2018-Jan-10 05:57N 34°34' E 138°23'612.6
2018-Jan-10 05:30N 34°33' E 138°16'713.0
2018-Jan-10 05:00N 34°33' E 138°08'712.9
2018-Jan-10 04:27N 34°33' E 137°59'3011.8
2018-Jan-10 01:54N 34°33' E 137°23'611.5
2018-Jan-10 01:24N 34°33' E 137°16'11 4.8
2018-Jan-09 23:04N 34°41' E 137°07'  

Dump ship's entire track history